createdAt,value
2023-03-27T00:01:19.806Z,100.00
2023-03-27T00:03:49.786Z,100.00
2023-03-27T00:06:19.629Z,100.00
2023-03-27T00:08:50.926Z,100.00
2023-03-27T00:11:22.308Z,100.00
2023-03-27T00:13:54.755Z,100.00
2023-03-27T00:16:27.078Z,100.00
2023-03-27T00:18:56.883Z,100.00
2023-03-27T00:21:26.136Z,100.00
2023-03-27T00:23:56.927Z,100.00
2023-03-27T00:26:26.886Z,100.00
2023-03-27T00:28:55.528Z,100.00
2023-03-27T00:31:25.601Z,100.00
2023-03-27T00:33:53.806Z,100.00
2023-03-27T00:36:22.235Z,100.00
2023-03-27T00:38:53.558Z,100.00
2023-03-27T00:41:22.652Z,100.00
2023-03-27T00:43:56.483Z,100.00
2023-03-27T00:46:34.775Z,100.00
2023-03-27T00:49:07.876Z,100.00
2023-03-27T00:51:38.459Z,100.00
2023-03-27T00:54:07.645Z,100.00
2023-03-27T00:56:38.858Z,100.00
2023-03-27T00:59:14.150Z,100.00
2023-03-27T01:01:46.481Z,100.00
2023-03-27T01:04:15.261Z,100.00
2023-03-27T01:06:44.162Z,100.00
2023-03-27T01:09:20.720Z,100.00
2023-03-27T01:12:01.402Z,100.00
2023-03-27T01:14:39.340Z,100.00
2023-03-27T01:17:22.893Z,100.00
2023-03-27T01:20:21.004Z,100.00
2023-03-27T01:23:14.777Z,100.00
2023-03-27T01:26:19.270Z,100.00
2023-03-27T01:29:11.778Z,100.00
2023-03-27T01:31:56.248Z,100.00
2023-03-27T01:35:02.221Z,100.00
2023-03-27T01:37:47.976Z,100.00
2023-03-27T01:40:21.694Z,100.00
2023-03-27T01:42:55.810Z,100.00
2023-03-27T01:45:29.716Z,100.00
2023-03-27T01:47:59.671Z,100.00
2023-03-27T01:50:34.864Z,100.00
2023-03-27T01:53:08.337Z,100.00
2023-03-27T01:55:43.627Z,100.00
2023-03-27T01:58:16.123Z,100.00
2023-03-27T02:00:53.003Z,100.00
2023-03-27T02:03:27.267Z,100.00
2023-03-27T02:05:59.755Z,100.00
2023-03-27T02:08:34.577Z,100.00
2023-03-27T02:11:04.885Z,100.00
2023-03-27T02:13:40.159Z,100.00
2023-03-27T02:16:13.488Z,100.00
2023-03-27T02:18:48.656Z,100.00
2023-03-27T02:21:17.673Z,100.00
2023-03-27T02:23:47.822Z,100.00
2023-03-27T02:26:17.936Z,100.00
2023-03-27T02:28:56.944Z,100.00
2023-03-27T02:31:37.200Z,100.00
2023-03-27T02:34:29.131Z,100.00
2023-03-27T02:37:04.057Z,100.00
2023-03-27T02:39:40.743Z,100.00
2023-03-27T02:42:16.403Z,100.00
2023-03-27T02:44:51.880Z,100.00
2023-03-27T02:47:28.998Z,100.00
2023-03-27T02:50:04.526Z,100.00
2023-03-27T02:52:37.361Z,100.00
2023-03-27T02:55:10.581Z,100.00
2023-03-27T02:57:40.871Z,100.00
2023-03-27T03:00:25.716Z,100.00
2023-03-27T03:03:00.272Z,100.00
2023-03-27T03:05:28.767Z,100.00
2023-03-27T03:07:58.318Z,100.00
2023-03-27T03:10:28.447Z,100.00
2023-03-27T03:12:58.189Z,100.00
2023-03-27T03:15:26.529Z,100.00
2023-03-27T03:17:55.135Z,100.00
2023-03-27T03:20:24.263Z,100.00
2023-03-27T03:22:52.762Z,100.00
2023-03-27T03:25:21.192Z,100.00
2023-03-27T03:27:49.720Z,100.00
2023-03-27T03:30:19.633Z,100.00
2023-03-27T03:32:49.244Z,100.00
2023-03-27T03:35:18.529Z,100.00
2023-03-27T03:40:32.996Z,100.00
2023-03-27T03:43:01.528Z,100.00
2023-03-27T03:45:31.134Z,100.00
2023-03-27T03:47:59.401Z,100.00
2023-03-27T03:50:28.303Z,100.00
2023-03-27T03:52:56.744Z,100.00
2023-03-27T03:55:26.534Z,100.00
2023-03-27T03:57:54.767Z,100.00
2023-03-27T04:00:25.327Z,100.00
2023-03-27T04:02:56.287Z,100.00
2023-03-27T04:05:25.143Z,100.00
2023-03-27T04:07:53.797Z,100.00
2023-03-27T04:10:22.034Z,100.00
2023-03-27T04:12:51.019Z,100.00
2023-03-27T04:15:20.001Z,100.00
2023-03-27T04:17:49.673Z,100.00
2023-03-27T04:20:19.654Z,100.00
2023-03-27T04:22:51.350Z,100.00
2023-03-27T04:25:22.298Z,100.00
2023-03-27T04:27:52.087Z,100.00
2023-03-27T04:30:23.849Z,100.00
2023-03-27T04:32:53.414Z,100.00
2023-03-27T04:35:23.465Z,100.00
2023-03-27T04:37:51.875Z,100.00
2023-03-27T04:40:20.843Z,100.00
2023-03-27T04:42:50.464Z,100.00
2023-03-27T04:45:22.800Z,100.00
2023-03-27T04:47:51.325Z,100.00
2023-03-27T04:50:19.617Z,100.00
2023-03-27T04:52:50.686Z,100.00
2023-03-27T04:55:19.917Z,100.00
2023-03-27T04:57:49.271Z,100.00
2023-03-27T05:00:19.596Z,100.00
2023-03-27T05:02:49.041Z,100.00
2023-03-27T05:05:18.652Z,100.00
2023-03-27T05:07:49.779Z,100.00
2023-03-27T05:10:21.821Z,100.00
2023-03-27T05:12:56.451Z,100.00
2023-03-27T05:15:26.261Z,100.00
2023-03-27T05:17:54.634Z,100.00
2023-03-27T05:20:23.887Z,100.00
2023-03-27T05:22:56.391Z,100.00
2023-03-27T05:25:25.414Z,100.00
2023-03-27T05:27:54.749Z,100.00
2023-03-27T05:30:26.538Z,100.00
2023-03-27T05:32:55.255Z,100.00
2023-03-27T05:35:25.645Z,100.00
2023-03-27T05:37:57.564Z,100.00
2023-03-27T05:40:28.526Z,100.00
2023-03-27T05:42:59.127Z,100.00
2023-03-27T05:45:28.411Z,100.00
2023-03-27T05:47:58.868Z,100.00
2023-03-27T05:50:30.503Z,100.00
2023-03-27T05:53:03.026Z,100.00
2023-03-27T05:55:32.394Z,100.00
2023-03-27T05:58:00.919Z,100.00
2023-03-27T06:00:32.823Z,100.00
2023-03-27T06:03:03.384Z,100.00
2023-03-27T06:05:32.772Z,100.00
2023-03-27T06:08:03.113Z,100.00
2023-03-27T06:10:34.147Z,100.00
2023-03-27T06:13:05.201Z,100.00
2023-03-27T06:15:34.334Z,100.00
2023-03-27T06:18:03.184Z,100.00
2023-03-27T06:20:31.746Z,100.00
2023-03-27T06:23:03.881Z,100.00
2023-03-27T06:25:34.982Z,100.00
2023-03-27T06:28:04.994Z,100.00
2023-03-27T06:30:33.517Z,100.00
2023-03-27T06:33:03.196Z,100.00
2023-03-27T06:35:34.049Z,100.00
2023-03-27T06:38:04.794Z,100.00
2023-03-27T06:40:35.517Z,100.00
2023-03-27T06:43:05.934Z,100.00
2023-03-27T06:45:37.698Z,100.00
2023-03-27T06:48:18.737Z,100.00
2023-03-27T06:50:50.437Z,100.00
2023-03-27T06:55:52.440Z,100.00
2023-03-27T06:58:22.107Z,100.00
2023-03-27T07:00:51.485Z,100.00
2023-03-27T07:03:21.404Z,100.00
2023-03-27T07:05:50.622Z,100.00
2023-03-27T07:08:24.730Z,100.00
2023-03-27T07:13:25.837Z,100.00
2023-03-27T07:15:55.225Z,100.00
2023-03-27T07:18:23.971Z,100.00
2023-03-27T07:20:52.404Z,100.00
2023-03-27T07:23:22.556Z,100.00
2023-03-27T07:25:53.052Z,100.00
2023-03-27T07:28:21.671Z,100.00
2023-03-27T07:30:50.213Z,100.00
2023-03-27T07:33:18.506Z,100.00
2023-03-27T07:35:49.423Z,100.00
2023-03-27T07:38:18.513Z,100.00
2023-03-27T07:40:50.904Z,100.00
2023-03-27T07:43:19.958Z,100.00
2023-03-27T07:45:49.905Z,100.00
2023-03-27T07:48:19.091Z,100.00
2023-03-27T07:50:47.996Z,100.00
2023-03-27T07:53:34.043Z,100.00
2023-03-27T07:56:05.690Z,100.00
2023-03-27T07:58:34.355Z,100.00
2023-03-27T08:01:03.914Z,100.00
2023-03-27T08:03:32.543Z,100.00
2023-03-27T08:06:02.121Z,100.00
2023-03-27T08:08:31.313Z,100.00
2023-03-27T08:11:01.877Z,100.00
2023-03-27T08:13:32.178Z,100.00
2023-03-27T08:16:05.164Z,100.00
2023-03-27T08:18:33.482Z,100.00
2023-03-27T08:21:03.593Z,100.00
2023-03-27T08:23:32.901Z,100.00
2023-03-27T08:26:02.052Z,100.00
2023-03-27T08:28:32.746Z,100.00
2023-03-27T08:31:03.581Z,100.00
2023-03-27T08:33:32.166Z,98.59
2023-03-27T08:36:00.566Z,98.73
2023-03-27T08:38:33.232Z,94.10
2023-03-27T08:41:05.483Z,99.37
2023-03-27T08:43:40.975Z,86.15
2023-03-27T08:46:15.786Z,77.50
2023-03-27T08:48:49.355Z,73.06
2023-03-27T08:51:24.293Z,69.13
2023-03-27T08:53:59.944Z,65.80
2023-03-27T08:56:29.061Z,64.64
2023-03-27T08:58:59.324Z,60.96
2023-03-27T09:01:33.743Z,56.54
2023-03-27T09:04:13.141Z,56.03
2023-03-27T09:06:50.687Z,57.56
2023-03-27T09:09:31.856Z,63.40
2023-03-27T09:12:10.525Z,65.06
2023-03-27T09:14:44.550Z,65.47
2023-03-27T09:17:18.542Z,58.99
2023-03-27T09:19:48.931Z,57.23
2023-03-27T09:22:22.047Z,60.96
2023-03-27T09:24:54.894Z,63.72
2023-03-27T09:27:27.586Z,63.94
2023-03-27T09:30:18.807Z,59.98
2023-03-27T09:32:48.368Z,61.38
2023-03-27T09:35:18.112Z,57.60
2023-03-27T09:37:47.113Z,57.37
2023-03-27T09:40:24.005Z,56.64
2023-03-27T09:42:56.218Z,56.12
2023-03-27T09:45:27.454Z,57.15
2023-03-27T09:48:01.540Z,59.67
2023-03-27T09:50:33.911Z,56.20
2023-03-27T09:53:11.288Z,55.52
2023-03-27T09:55:53.190Z,55.34
2023-03-27T09:58:44.141Z,54.11
2023-03-27T10:01:16.990Z,54.47
2023-03-27T10:03:52.834Z,54.22
2023-03-27T10:06:33.286Z,55.71
2023-03-27T10:09:02.293Z,54.98
2023-03-27T10:11:33.887Z,55.11
2023-03-27T10:14:11.666Z,52.53
2023-03-27T10:16:42.817Z,53.27
2023-03-27T10:19:23.393Z,52.91
2023-03-27T10:21:53.123Z,51.80
2023-03-27T10:24:23.413Z,51.63
2023-03-27T10:26:54.392Z,51.89
2023-03-27T10:29:26.600Z,50.73
2023-03-27T10:31:58.622Z,53.28
2023-03-27T10:34:33.837Z,52.63
2023-03-27T10:37:03.320Z,49.53
2023-03-27T10:39:37.636Z,49.47
2023-03-27T10:42:10.427Z,51.40
2023-03-27T10:44:40.138Z,53.73
2023-03-27T10:47:20.658Z,53.60
2023-03-27T10:49:54.283Z,53.45
2023-03-27T10:52:26.024Z,53.71
2023-03-27T10:55:09.782Z,54.85
2023-03-27T10:57:40.249Z,53.43
2023-03-27T11:00:18.732Z,53.36
2023-03-27T11:02:54.998Z,55.72
2023-03-27T11:05:29.482Z,56.23
2023-03-27T11:08:04.536Z,56.93
2023-03-27T11:10:37.316Z,54.48
2023-03-27T11:13:12.781Z,52.80
2023-03-27T11:15:46.193Z,54.45
2023-03-27T11:18:20.360Z,53.65
2023-03-27T11:20:53.931Z,55.64
2023-03-27T11:23:30.650Z,62.77
2023-03-27T11:26:01.569Z,70.22
2023-03-27T11:28:39.906Z,77.57
2023-03-27T11:31:16.204Z,70.21
2023-03-27T11:33:50.948Z,65.67
2023-03-27T11:36:39.910Z,66.46
2023-03-27T11:39:17.537Z,64.40
2023-03-27T11:41:51.488Z,64.10
2023-03-27T11:44:19.872Z,62.33
2023-03-27T11:47:14.454Z,59.85
2023-03-27T11:49:52.972Z,56.05
2023-03-27T11:52:35.162Z,57.18
2023-03-27T11:55:12.274Z,52.52
2023-03-27T11:57:53.280Z,51.98
2023-03-27T12:00:29.702Z,54.92
2023-03-27T12:03:23.942Z,58.56
2023-03-27T12:06:03.569Z,63.22
2023-03-27T12:08:46.009Z,61.03
2023-03-27T12:11:14.281Z,61.09
2023-03-27T12:14:02.004Z,58.64
2023-03-27T12:16:52.618Z,55.31
2023-03-27T12:19:38.538Z,56.76
2023-03-27T12:22:23.981Z,62.70
2023-03-27T12:25:06.262Z,66.14
2023-03-27T12:27:47.883Z,69.13
2023-03-27T12:30:27.657Z,64.68
2023-03-27T12:33:30.331Z,60.73
2023-03-27T12:36:02.980Z,58.60
2023-03-27T12:38:37.846Z,61.27
2023-03-27T12:41:15.042Z,66.72
2023-03-27T12:43:47.290Z,75.26
2023-03-27T12:46:32.429Z,77.27
2023-03-27T12:49:05.649Z,79.74
2023-03-27T12:51:44.647Z,72.59
2023-03-27T12:54:33.232Z,74.19
2023-03-27T12:57:07.723Z,68.60
2023-03-27T12:59:40.530Z,64.26
2023-03-27T13:02:48.548Z,66.61
2023-03-27T13:05:41.874Z,74.62
2023-03-27T13:08:43.585Z,100.00
2023-03-27T13:11:27.391Z,100.00
2023-03-27T13:14:18.741Z,100.00
2023-03-27T13:17:01.929Z,100.00
2023-03-27T13:19:44.667Z,100.00
2023-03-27T13:22:41.419Z,100.00
2023-03-27T13:25:20.457Z,100.00
2023-03-27T13:28:14.627Z,100.00
2023-03-27T13:30:48.074Z,100.00
2023-03-27T13:33:18.835Z,100.00
2023-03-27T13:36:05.259Z,100.00
2023-03-27T13:39:15.302Z,100.00
2023-03-27T13:42:04.132Z,100.00
2023-03-27T13:44:44.714Z,100.00
2023-03-27T13:47:41.446Z,100.00
2023-03-27T13:50:25.845Z,100.00
2023-03-27T13:53:33.115Z,100.00
2023-03-27T13:56:23.599Z,100.00
2023-03-27T13:59:22.422Z,100.00
2023-03-27T14:02:05.723Z,100.00
2023-03-27T14:04:55.509Z,100.00
2023-03-27T14:07:55.950Z,100.00
2023-03-27T14:10:49.832Z,100.00
2023-03-27T14:13:35.766Z,100.00
2023-03-27T14:16:37.883Z,100.00
2023-03-27T14:19:39.073Z,100.00
2023-03-27T14:22:14.927Z,100.00
2023-03-27T14:24:49.256Z,100.00
2023-03-27T14:27:21.240Z,100.00
2023-03-27T14:30:04.944Z,100.00
2023-03-27T14:32:33.893Z,100.00
2023-03-27T14:35:06.694Z,100.00
2023-03-27T14:37:37.446Z,100.00
2023-03-27T14:40:21.295Z,100.00
2023-03-27T14:42:52.723Z,100.00
2023-03-27T14:45:24.129Z,100.00
2023-03-27T14:47:57.471Z,100.00
2023-03-27T14:50:30.168Z,100.00
2023-03-27T14:53:00.128Z,100.00
2023-03-27T14:55:32.533Z,100.00
2023-03-27T14:58:11.111Z,93.44
2023-03-27T15:00:43.269Z,88.41
2023-03-27T15:03:16.114Z,82.55
2023-03-27T15:06:05.658Z,86.63
2023-03-27T15:08:39.093Z,90.56
2023-03-27T15:11:14.577Z,83.68
2023-03-27T15:13:48.236Z,90.08
2023-03-27T15:16:22.755Z,93.85
2023-03-27T15:19:12.659Z,99.60
2023-03-27T15:21:51.128Z,94.74
2023-03-27T15:24:30.124Z,86.11
2023-03-27T15:27:00.795Z,90.76
2023-03-27T15:29:39.388Z,89.06
2023-03-27T15:32:15.124Z,87.07
2023-03-27T15:34:48.047Z,85.24
2023-03-27T15:37:23.534Z,81.63
2023-03-27T15:40:09.098Z,88.79
2023-03-27T15:42:48.539Z,71.46
2023-03-27T15:45:20.228Z,86.71
2023-03-27T15:48:02.022Z,100.00
2023-03-27T15:50:30.969Z,100.00
2023-03-27T15:53:02.083Z,96.37
2023-03-27T15:55:37.472Z,98.70
2023-03-27T15:58:25.887Z,90.99
2023-03-27T16:00:59.522Z,81.89
2023-03-27T16:03:31.495Z,79.46
2023-03-27T16:06:00.668Z,79.43
2023-03-27T16:08:36.622Z,79.28
2023-03-27T16:11:06.557Z,83.70
2023-03-27T16:13:37.438Z,83.34
2023-03-27T16:16:21.555Z,84.94
2023-03-27T16:18:50.248Z,88.44
2023-03-27T16:21:23.215Z,94.15
2023-03-27T16:23:53.019Z,85.15
2023-03-27T16:26:26.535Z,80.21
2023-03-27T16:28:57.847Z,91.67
2023-03-27T16:31:26.451Z,84.76
2023-03-27T16:33:55.433Z,92.32
2023-03-27T16:36:29.474Z,90.80
2023-03-27T16:38:58.797Z,82.44
2023-03-27T16:41:26.938Z,80.44
2023-03-27T16:43:55.981Z,76.55
2023-03-27T16:46:27.462Z,84.28
2023-03-27T16:48:56.809Z,80.09
2023-03-27T16:51:28.066Z,72.24
2023-03-27T16:53:57.550Z,68.95
2023-03-27T16:56:27.531Z,73.61
2023-03-27T16:58:56.019Z,69.27
2023-03-27T17:01:26.288Z,63.34
2023-03-27T17:03:54.487Z,64.25
2023-03-27T17:06:23.789Z,61.98
2023-03-27T17:08:55.772Z,58.91
2023-03-27T17:11:25.264Z,55.87
2023-03-27T17:13:55.222Z,56.04
2023-03-27T17:16:23.992Z,57.56
2023-03-27T17:18:53.817Z,56.38
2023-03-27T17:21:21.965Z,57.96
2023-03-27T17:23:53.225Z,61.82
2023-03-27T17:26:28.678Z,60.46
2023-03-27T17:28:59.536Z,60.29
2023-03-27T17:31:30.662Z,60.49
2023-03-27T17:33:59.350Z,59.51
2023-03-27T17:36:39.701Z,59.40
2023-03-27T17:39:10.646Z,60.53
2023-03-27T17:41:39.749Z,62.74
2023-03-27T17:44:12.341Z,63.07
2023-03-27T17:46:41.190Z,62.58
2023-03-27T17:49:09.910Z,61.69
2023-03-27T17:51:38.577Z,62.80
2023-03-27T17:54:07.318Z,63.27
2023-03-27T17:56:35.809Z,63.27
2023-03-27T17:59:06.008Z,62.66
2023-03-27T18:01:36.292Z,62.72
2023-03-27T18:04:05.234Z,63.74
2023-03-27T18:06:33.723Z,67.15
2023-03-27T18:09:02.280Z,66.75
2023-03-27T18:11:31.497Z,65.41
2023-03-27T18:14:00.126Z,70.39
2023-03-27T18:16:28.703Z,67.03
2023-03-27T18:18:58.780Z,74.29
2023-03-27T18:21:27.110Z,70.31
2023-03-27T18:23:59.339Z,72.67
2023-03-27T18:26:27.850Z,69.41
2023-03-27T18:28:56.657Z,68.52
2023-03-27T18:31:25.443Z,73.60
2023-03-27T18:33:53.915Z,73.98
2023-03-27T18:36:24.177Z,74.92
2023-03-27T18:38:53.143Z,88.00
2023-03-27T18:41:22.006Z,100.00
2023-03-27T18:43:50.831Z,100.00
2023-03-27T18:46:20.539Z,100.00
2023-03-27T18:48:50.156Z,100.00
2023-03-27T18:51:19.700Z,100.00
2023-03-27T18:53:51.423Z,100.00
2023-03-27T18:56:20.219Z,100.00
2023-03-27T18:58:48.577Z,100.00
2023-03-27T19:01:17.712Z,100.00
2023-03-27T19:03:45.940Z,100.00
2023-03-27T19:06:16.354Z,100.00
2023-03-27T19:08:45.610Z,100.00
2023-03-27T19:11:15.833Z,100.00
2023-03-27T19:13:44.825Z,100.00
2023-03-27T19:16:15.007Z,100.00
2023-03-27T19:18:43.982Z,100.00
2023-03-27T19:21:12.318Z,100.00
2023-03-27T19:23:40.694Z,100.00
2023-03-27T19:26:12.597Z,100.00
2023-03-27T19:28:44.239Z,100.00
2023-03-27T19:31:13.903Z,100.00
2023-03-27T19:33:42.261Z,100.00
2023-03-27T19:36:10.822Z,100.00
2023-03-27T19:38:39.203Z,100.00
2023-03-27T19:41:10.227Z,100.00
2023-03-27T19:43:38.745Z,100.00
2023-03-27T19:46:16.514Z,100.00
2023-03-27T19:48:47.646Z,100.00
2023-03-27T19:51:16.140Z,100.00
2023-03-27T19:53:44.651Z,100.00
2023-03-27T19:56:14.587Z,100.00
2023-03-27T19:58:43.236Z,100.00
2023-03-27T20:01:13.419Z,100.00
2023-03-27T20:03:44.300Z,100.00
2023-03-27T20:06:18.991Z,100.00
2023-03-27T20:08:47.254Z,100.00
2023-03-27T20:11:15.710Z,100.00
2023-03-27T20:13:55.458Z,100.00
2023-03-27T20:16:27.707Z,100.00
2023-03-27T20:19:03.862Z,100.00
2023-03-27T20:21:34.650Z,100.00
2023-03-27T20:24:03.017Z,100.00
2023-03-27T20:26:39.404Z,100.00
2023-03-27T20:29:08.713Z,100.00
2023-03-27T20:31:39.215Z,100.00
2023-03-27T20:34:09.562Z,100.00
2023-03-27T20:36:41.304Z,100.00
2023-03-27T20:39:09.775Z,100.00
2023-03-27T20:41:39.229Z,100.00
2023-03-27T20:44:15.108Z,100.00
2023-03-27T20:46:52.061Z,100.00
2023-03-27T20:51:57.930Z,100.00
2023-03-27T20:54:26.315Z,100.00
2023-03-27T20:56:54.898Z,100.00
2023-03-27T20:59:23.449Z,100.00
2023-03-27T21:01:53.308Z,100.00
2023-03-27T21:04:24.635Z,100.00
2023-03-27T21:06:54.983Z,100.00
2023-03-27T21:09:23.779Z,100.00
2023-03-27T21:11:52.573Z,100.00
2023-03-27T21:14:20.963Z,100.00
2023-03-27T21:16:50.244Z,100.00
2023-03-27T21:19:20.169Z,100.00
2023-03-27T21:21:48.736Z,100.00
2023-03-27T21:24:17.128Z,100.00
2023-03-27T21:26:45.424Z,100.00
2023-03-27T21:29:15.395Z,100.00
2023-03-27T21:31:43.952Z,100.00
2023-03-27T21:34:26.142Z,100.00
2023-03-27T21:36:54.301Z,100.00
2023-03-27T21:39:22.796Z,100.00
2023-03-27T21:41:51.304Z,100.00
2023-03-27T21:44:19.498Z,100.00
2023-03-27T21:46:47.738Z,100.00
2023-03-27T21:49:16.160Z,100.00
2023-03-27T21:51:46.864Z,100.00
2023-03-27T21:54:15.783Z,100.00
2023-03-27T21:56:44.174Z,100.00
2023-03-27T21:59:12.696Z,100.00
2023-03-27T22:01:41.202Z,100.00
2023-03-27T22:04:09.816Z,100.00
2023-03-27T22:06:38.706Z,100.00
2023-03-27T22:09:09.132Z,100.00
2023-03-27T22:11:39.305Z,100.00
2023-03-27T22:14:08.234Z,100.00
2023-03-27T22:16:36.637Z,100.00
2023-03-27T22:19:04.738Z,100.00
2023-03-27T22:21:33.257Z,100.00
2023-03-27T22:24:02.384Z,100.00
2023-03-27T22:26:34.804Z,100.00
2023-03-27T22:29:03.401Z,100.00
2023-03-27T22:31:32.259Z,100.00
2023-03-27T22:34:01.206Z,100.00
2023-03-27T22:36:29.566Z,100.00
2023-03-27T22:38:57.774Z,100.00
2023-03-27T22:41:26.751Z,100.00
2023-03-27T22:43:56.487Z,100.00
2023-03-27T22:46:27.124Z,100.00
2023-03-27T22:48:56.638Z,100.00
2023-03-27T22:51:26.479Z,100.00
2023-03-27T22:53:54.750Z,100.00
2023-03-27T22:56:23.511Z,100.00
2023-03-27T22:58:52.211Z,100.00
2023-03-27T23:01:22.219Z,100.00
2023-03-27T23:03:50.611Z,100.00
2023-03-27T23:06:20.645Z,100.00
2023-03-27T23:08:50.180Z,100.00
2023-03-27T23:11:19.848Z,100.00
2023-03-27T23:13:48.633Z,100.00
2023-03-27T23:16:17.031Z,100.00
2023-03-27T23:18:46.578Z,100.00
2023-03-27T23:21:16.978Z,100.00
2023-03-27T23:23:45.570Z,100.00
2023-03-27T23:26:14.786Z,100.00
2023-03-27T23:28:43.929Z,100.00
2023-03-27T23:31:13.610Z,100.00
2023-03-27T23:33:44.347Z,100.00
2023-03-27T23:36:16.541Z,100.00
2023-03-27T23:38:45.534Z,100.00
2023-03-27T23:41:15.064Z,100.00
2023-03-27T23:43:43.780Z,100.00
2023-03-27T23:46:12.653Z,100.00
2023-03-27T23:48:42.938Z,100.00
2023-03-27T23:51:15.847Z,100.00
2023-03-27T23:53:44.921Z,100.00
2023-03-27T23:56:13.722Z,100.00
2023-03-27T23:58:42.262Z,100.00
